Daneborg

KL  EN  DA
ASIAQ
Weather Now GREENLAND SURVEY
Updated [WGT/WGST] Temperature [°C] Wind [m/s] Air pressure [hPa] Relative humidity [%] Precipitation [mm]
Present Wind chill Speed Max
27.09 02:00-2,0-9,69,8 ⇓13,9102176n/a
27.09 01:00-1,5-9,310,8 ⇓14,9102174n/a
27.09 00:00-2,1-10,411,8 ⇓16,5102074n/a
26.09 23:00-1,7-10,012,4 ⇓17,0102070n/a
26.09 22:00-1,7-9,711,3 ⇓14,9102069n/a
26.09 21:00-1,6-9,912,4 ⇓15,4102066n/a
26.09 20:00-1,5-9,812,4 ⇓16,0102069n/a
26.09 19:00-1,6-9,611,3 ⇙14,4102065n/a
26.09 18:00-1,4-8,58,8 ⇙10,3101964n/a
26.09 17:00-0,5-7,18,2 ⇓9,8101948n/a
26.09 16:000,1-5,97,2 ⇓9,3101845n/a
26.09 15:000,4-4,85,7 ⇓8,8101845n/a
26.09 14:000,0-6,48,2 ⇓10,3101847n/a
26.09 13:00-0,1-5,96,7 ⇓9,8101854n/a
26.09 12:00-0,7-6,97,2 ⇓9,8101855n/a
26.09 11:00-1,0-7,78,2 ⇓10,3101861n/a
26.09 10:00-1,0-7,57,7 ⇓9,8101856n/a
26.09 09:00-1,6-8,58,2 ⇓9,8101862n/a
26.09 08:00-1,6-8,78,8 ⇓11,3101863n/a
26.09 07:00-1,6-8,58,2 ⇓11,3101766n/a
26.09 06:00-1,9-9,39,3 ⇙11,8101771n/a
26.09 05:00-1,5-9,110,3 ⇙12,9101669n/a
26.09 04:00-1,4-8,89,8 ⇓12,9101660n/a
26.09 03:00-1,2-8,710,3 ⇙12,4101667n/a
26.09 02:00-1,2-8,49,3 ⇓12,4101664n/a
Position: (74.3075,-20.21694444)

[Back]